createdAt,value
2019-04-16T00:00:26.525Z,3.63
2019-04-16T00:02:58.515Z,3.80
2019-04-16T00:05:44.163Z,4.47
2019-04-16T00:08:27.142Z,3.30
2019-04-16T00:10:54.550Z,3.20
2019-04-16T00:13:28.751Z,3.30
2019-04-16T00:16:01.641Z,3.53
2019-04-16T00:18:32.761Z,4.12
2019-04-16T00:21:22.000Z,2.90
2019-04-16T00:24:19.177Z,3.30
2019-04-16T00:26:58.050Z,3.07
2019-04-16T00:29:32.565Z,3.30
2019-04-16T00:32:07.867Z,3.07
2019-04-16T00:34:37.209Z,3.20
2019-04-16T00:37:08.195Z,3.83
2019-04-16T00:39:39.509Z,3.53
2019-04-16T00:42:10.713Z,3.70
2019-04-16T00:44:42.029Z,2.97
2019-04-16T00:47:13.026Z,3.20
2019-04-16T00:49:44.457Z,3.20
2019-04-16T00:52:15.559Z,3.50
2019-04-16T00:54:46.825Z,3.50
2019-04-16T00:57:18.638Z,3.40
2019-04-16T00:59:49.627Z,2.63
2019-04-16T01:02:20.747Z,3.00
2019-04-16T01:04:51.811Z,2.83
2019-04-16T01:07:23.791Z,3.13
2019-04-16T01:09:54.832Z,3.13
2019-04-16T01:12:25.978Z,2.90
2019-04-16T01:15:00.697Z,4.20
2019-04-16T01:17:29.701Z,3.07
2019-04-16T01:20:00.774Z,3.03
2019-04-16T01:22:31.753Z,3.10
2019-04-16T01:25:02.786Z,3.15
2019-04-16T01:27:37.224Z,3.20
2019-04-16T01:30:09.894Z,2.87
2019-04-16T01:32:49.740Z,2.80
2019-04-16T01:35:38.472Z,3.03
2019-04-16T01:38:28.587Z,2.75
2019-04-16T01:41:02.074Z,3.17
2019-04-16T01:43:33.361Z,3.95
2019-04-16T01:46:04.535Z,3.97
2019-04-16T01:48:38.637Z,3.83
2019-04-16T01:51:08.221Z,3.40
2019-04-16T01:53:40.217Z,4.78
2019-04-16T01:56:11.416Z,4.57
2019-04-16T01:58:42.839Z,4.77
2019-04-16T02:01:13.858Z,3.13
2019-04-16T02:03:48.617Z,4.40
2019-04-16T02:06:17.650Z,3.85
2019-04-16T02:08:48.661Z,5.20
2019-04-16T02:11:19.710Z,4.40
2019-04-16T02:13:50.683Z,4.00
2019-04-16T02:16:22.316Z,3.87
2019-04-16T02:18:54.378Z,3.63
2019-04-16T02:21:25.349Z,3.07
2019-04-16T02:23:56.428Z,3.73
2019-04-16T02:26:28.684Z,4.03
2019-04-16T02:28:59.684Z,3.25
2019-04-16T02:31:30.701Z,2.85
2019-04-16T02:34:01.664Z,4.00
2019-04-16T02:36:32.696Z,3.90
2019-04-16T02:39:07.241Z,3.70
2019-04-16T02:41:38.309Z,3.37
2019-04-16T02:44:14.045Z,3.70
2019-04-16T02:46:42.219Z,3.70
2019-04-16T02:49:13.174Z,3.43
2019-04-16T02:52:03.100Z,3.83
2019-04-16T02:54:39.579Z,2.90
2019-04-16T02:57:28.464Z,3.27
2019-04-16T03:00:04.424Z,2.70
2019-04-16T03:02:53.659Z,3.80
2019-04-16T03:05:28.978Z,3.77
2019-04-16T03:08:01.442Z,4.03
2019-04-16T03:10:32.326Z,3.47
2019-04-16T03:13:03.393Z,3.30
2019-04-16T03:15:52.310Z,3.77
2019-04-16T03:18:28.003Z,3.60
2019-04-16T03:20:59.038Z,4.03
2019-04-16T03:23:30.030Z,3.90
2019-04-16T03:26:01.404Z,3.17
2019-04-16T03:28:32.351Z,3.23
2019-04-16T03:31:08.068Z,3.52
2019-04-16T03:33:36.258Z,3.43
2019-04-16T03:36:07.426Z,3.00
2019-04-16T03:38:41.924Z,3.50
2019-04-16T03:41:11.416Z,2.77
2019-04-16T03:43:42.369Z,4.20
2019-04-16T03:46:14.183Z,3.57
2019-04-16T03:48:45.364Z,3.20
2019-04-16T03:51:16.414Z,2.93
2019-04-16T03:53:49.575Z,3.67
2019-04-16T03:56:20.138Z,3.80
2019-04-16T03:58:51.113Z,3.50
2019-04-16T04:01:22.169Z,4.23
2019-04-16T04:03:57.076Z,3.50
2019-04-16T04:06:26.230Z,3.47
2019-04-16T04:08:57.192Z,3.57
2019-04-16T04:11:28.915Z,3.42
2019-04-16T04:13:59.876Z,3.73
2019-04-16T04:16:33.535Z,3.17
2019-04-16T04:19:03.835Z,3.02
2019-04-16T04:21:34.817Z,3.08
2019-04-16T04:24:05.957Z,3.33
2019-04-16T04:26:41.211Z,3.60
2019-04-16T04:29:09.649Z,3.23
2019-04-16T04:31:40.571Z,4.10
2019-04-16T04:34:15.784Z,4.17
2019-04-16T04:36:44.249Z,2.93
2019-04-16T04:39:15.949Z,3.20
2019-04-16T04:41:47.159Z,3.97
2019-04-16T04:44:18.230Z,3.03
2019-04-16T04:46:49.290Z,4.07
2019-04-16T04:49:20.388Z,4.87
2019-04-16T04:51:51.496Z,3.53
2019-04-16T04:54:23.486Z,4.23
2019-04-16T04:56:56.387Z,3.63
2019-04-16T04:59:27.833Z,2.70
2019-04-16T05:01:59.154Z,3.83
2019-04-16T05:04:52.452Z,3.77
2019-04-16T05:07:25.763Z,3.90
2019-04-16T05:09:56.976Z,3.10
2019-04-16T05:12:29.105Z,3.54
2019-04-16T05:15:03.664Z,4.33
2019-04-16T05:17:35.525Z,4.05
2019-04-16T05:20:06.586Z,4.03
2019-04-16T05:22:38.629Z,3.73
2019-04-16T05:25:10.243Z,5.63
2019-04-16T05:27:41.668Z,4.37
2019-04-16T05:30:12.866Z,3.33
2019-04-16T05:32:43.862Z,4.00
2019-04-16T05:35:14.917Z,3.20
2019-04-16T05:37:48.471Z,5.55
2019-04-16T05:40:18.603Z,3.60
2019-04-16T05:42:52.539Z,4.10
2019-04-16T05:45:22.218Z,4.47
2019-04-16T05:47:53.203Z,4.13
2019-04-16T05:50:28.741Z,4.13
2019-04-16T05:52:58.601Z,3.40
2019-04-16T05:55:37.726Z,3.80
2019-04-16T05:58:08.823Z,3.87
2019-04-16T06:00:44.602Z,3.50
2019-04-16T06:03:20.628Z,4.20
2019-04-16T06:05:48.537Z,4.60
2019-04-16T06:08:19.872Z,4.30
2019-04-16T06:10:51.272Z,4.17
2019-04-16T06:13:49.224Z,4.33
2019-04-16T06:16:25.844Z,4.10
2019-04-16T06:19:19.142Z,4.12
2019-04-16T06:22:21.470Z,5.40
2019-04-16T06:25:08.247Z,5.33
2019-04-16T06:27:46.488Z,4.27
2019-04-16T06:30:35.188Z,3.90
2019-04-16T06:33:15.702Z,3.85
2019-04-16T06:36:10.224Z,5.70
2019-04-16T06:38:57.817Z,4.70
2019-04-16T06:41:52.726Z,5.00
2019-04-16T06:44:29.841Z,4.50
2019-04-16T06:47:04.560Z,4.37
2019-04-16T06:50:03.700Z,5.10
2019-04-16T06:52:42.009Z,5.07
2019-04-16T06:55:24.643Z,4.37
2019-04-16T06:58:07.970Z,4.80
2019-04-16T07:01:05.916Z,4.83
2019-04-16T07:03:51.488Z,4.28
2019-04-16T07:06:36.153Z,3.97
2019-04-16T07:09:23.382Z,4.57
2019-04-16T07:11:55.038Z,4.00
2019-04-16T07:17:20.873Z,5.10
2019-04-16T07:19:51.975Z,4.60
2019-04-16T07:22:23.072Z,4.10
2019-04-16T07:25:03.848Z,4.30
2019-04-16T07:27:45.401Z,4.77
2019-04-16T07:30:23.486Z,4.43
2019-04-16T07:33:19.612Z,4.77
2019-04-16T07:36:15.888Z,4.97
2019-04-16T07:39:28.773Z,4.53
2019-04-16T07:42:10.751Z,4.73
2019-04-16T07:44:57.058Z,5.10
2019-04-16T07:47:53.408Z,4.53
2019-04-16T07:50:39.267Z,5.20
2019-04-16T07:53:25.747Z,4.70
2019-04-16T07:55:59.652Z,4.23
2019-04-16T07:58:31.890Z,4.77
2019-04-16T08:01:05.115Z,4.57
2019-04-16T08:03:36.359Z,5.40
2019-04-16T08:06:10.709Z,5.20
2019-04-16T08:08:40.647Z,4.73
2019-04-16T08:11:11.778Z,6.10
2019-04-16T08:13:43.836Z,4.60
2019-04-16T08:16:14.996Z,5.35
2019-04-16T08:18:50.697Z,6.07
2019-04-16T08:21:22.739Z,5.07
2019-04-16T08:24:03.028Z,5.50
2019-04-16T08:26:34.130Z,5.70
2019-04-16T08:29:05.661Z,5.10
2019-04-16T08:31:40.856Z,5.53
2019-04-16T08:34:12.772Z,5.50
2019-04-16T08:36:44.002Z,5.05
2019-04-16T08:39:16.030Z,5.43
2019-04-16T08:41:52.144Z,5.10
2019-04-16T08:44:20.209Z,5.07
2019-04-16T08:46:51.357Z,5.13
2019-04-16T08:49:23.038Z,4.90
2019-04-16T08:52:01.571Z,5.67
2019-04-16T08:54:32.772Z,5.27
2019-04-16T08:57:03.957Z,5.65
2019-04-16T08:59:35.153Z,4.45
2019-04-16T09:02:07.154Z,5.15
2019-04-16T09:04:39.425Z,5.27
2019-04-16T09:07:29.549Z,5.30
2019-04-16T09:10:01.104Z,4.87
2019-04-16T09:12:32.529Z,5.60
2019-04-16T09:15:03.746Z,5.47
2019-04-16T09:17:38.128Z,4.83
2019-04-16T09:20:11.664Z,5.27
2019-04-16T09:22:49.301Z,5.58
2019-04-16T09:25:42.577Z,5.13
2019-04-16T09:28:25.808Z,5.15
2019-04-16T09:31:06.951Z,4.23
2019-04-16T09:33:48.073Z,4.70
2019-04-16T09:36:39.317Z,5.07
2019-04-16T09:39:20.237Z,5.43
2019-04-16T09:41:51.538Z,4.47
2019-04-16T09:44:22.692Z,4.07
2019-04-16T09:46:56.607Z,4.58
2019-04-16T09:49:26.587Z,4.77
2019-04-16T09:51:57.827Z,4.57
2019-04-16T09:54:32.389Z,4.45
2019-04-16T09:57:09.170Z,4.90
2019-04-16T09:59:47.742Z,4.17
2019-04-16T10:02:22.964Z,4.83
2019-04-16T10:04:54.101Z,5.27
2019-04-16T10:07:25.285Z,4.43
2019-04-16T10:09:56.408Z,5.60
2019-04-16T10:12:27.493Z,4.80
2019-04-16T10:14:58.585Z,4.43
2019-04-16T10:17:29.851Z,4.37
2019-04-16T10:20:00.919Z,4.63
2019-04-16T10:22:32.241Z,4.57
2019-04-16T10:25:06.417Z,4.73
2019-04-16T10:27:40.353Z,4.37
2019-04-16T10:30:30.858Z,4.90
2019-04-16T10:33:02.238Z,4.47
2019-04-16T10:35:33.589Z,4.20
2019-04-16T10:38:15.615Z,5.12
2019-04-16T10:40:51.726Z,5.00
2019-04-16T10:43:44.644Z,5.50
2019-04-16T10:46:42.281Z,5.10
2019-04-16T10:49:19.490Z,4.30
2019-04-16T10:52:04.635Z,4.30
2019-04-16T10:54:43.454Z,4.37
2019-04-16T10:57:38.407Z,3.97
2019-04-16T11:00:35.446Z,4.70
2019-04-16T11:03:14.969Z,3.70
2019-04-16T11:06:05.297Z,4.90
2019-04-16T11:08:37.056Z,3.80
2019-04-16T11:11:08.429Z,3.73
2019-04-16T11:13:58.323Z,4.30
2019-04-16T11:16:18.693Z,4.30
2019-04-16T11:18:49.913Z,3.47
2019-04-16T11:21:21.399Z,4.53
2019-04-16T11:23:52.566Z,4.73
2019-04-16T11:26:23.745Z,4.70
2019-04-16T11:28:54.992Z,3.93
2019-04-16T11:31:26.813Z,4.20
2019-04-16T11:33:58.060Z,4.33
2019-04-16T11:36:31.632Z,3.85
2019-04-16T11:39:04.034Z,4.10
2019-04-16T11:41:36.241Z,4.80
2019-04-16T11:44:14.774Z,4.77
2019-04-16T11:46:45.748Z,4.33
2019-04-16T11:49:17.094Z,4.50
2019-04-16T11:51:48.296Z,4.77
2019-04-16T11:54:19.686Z,4.40
2019-04-16T11:56:50.873Z,4.90
2019-04-16T11:59:22.185Z,4.23
2019-04-16T12:02:05.124Z,4.67
2019-04-16T12:04:58.837Z,4.87
2019-04-16T12:07:58.060Z,5.30
2019-04-16T12:10:53.849Z,5.18
2019-04-16T12:13:44.959Z,4.87
2019-04-16T12:16:28.196Z,4.63
2019-04-16T12:19:17.759Z,4.75
2019-04-16T12:21:59.760Z,4.93
2019-04-16T12:25:04.958Z,4.50
2019-04-16T12:27:50.044Z,4.47
2019-04-16T12:30:40.153Z,4.67
2019-04-16T12:33:31.970Z,4.08
2019-04-16T12:36:22.377Z,3.90
2019-04-16T12:39:01.652Z,4.07
2019-04-16T12:41:49.393Z,3.77
2019-04-16T12:44:50.120Z,5.87
2019-04-16T12:47:40.580Z,4.15
2019-04-16T12:50:29.710Z,6.13
2019-04-16T12:53:13.801Z,5.43
2019-04-16T12:56:08.577Z,4.72
2019-04-16T12:58:44.140Z,4.77
2019-04-16T13:01:37.316Z,4.03
2019-04-16T13:04:12.787Z,4.12
2019-04-16T13:07:09.149Z,4.83
2019-04-16T13:10:08.679Z,5.03
2019-04-16T13:13:00.145Z,4.97
2019-04-16T13:15:45.065Z,4.87
2019-04-16T13:18:23.599Z,5.40
2019-04-16T13:21:03.857Z,5.30
2019-04-16T13:23:38.541Z,5.47
2019-04-16T13:26:27.714Z,4.87
2019-04-16T13:29:00.314Z,5.17
2019-04-16T13:31:31.375Z,5.07
2019-04-16T13:34:02.548Z,4.30
2019-04-16T13:36:33.668Z,5.40
2019-04-16T13:39:20.909Z,5.15
2019-04-16T13:41:51.999Z,3.60
2019-04-16T13:44:25.437Z,4.23
2019-04-16T13:47:01.331Z,4.47
2019-04-16T13:49:40.619Z,5.37
2019-04-16T13:52:17.013Z,5.33
2019-04-16T13:55:10.562Z,4.30
2019-04-16T13:57:42.538Z,4.30
2019-04-16T14:00:19.935Z,3.93
2019-04-16T14:02:54.145Z,4.43
2019-04-16T14:05:25.241Z,4.23
2019-04-16T14:07:56.363Z,3.47
2019-04-16T14:10:27.490Z,4.10
2019-04-16T14:12:58.925Z,4.53
2019-04-16T14:15:39.071Z,3.75
2019-04-16T14:18:06.451Z,3.63
2019-04-16T14:20:37.557Z,3.77
2019-04-16T14:23:08.666Z,4.70
2019-04-16T14:25:39.708Z,4.13
2019-04-16T14:28:11.177Z,3.80
2019-04-16T14:30:46.191Z,3.80
2019-04-16T14:33:25.167Z,3.63
2019-04-16T14:35:56.192Z,4.43
2019-04-16T14:38:36.959Z,4.27
2019-04-16T14:41:08.542Z,3.50
2019-04-16T14:43:42.320Z,4.67
2019-04-16T14:46:13.485Z,4.27
2019-04-16T14:48:46.467Z,4.17
2019-04-16T14:51:17.473Z,4.33
2019-04-16T14:53:56.840Z,4.33
2019-04-16T14:56:36.711Z,3.97
2019-04-16T14:59:38.745Z,3.80
2019-04-16T15:02:29.374Z,5.03
2019-04-16T15:05:09.277Z,3.33
2019-04-16T15:07:59.900Z,4.33
2019-04-16T15:11:05.312Z,4.10
2019-04-16T15:13:58.323Z,4.43
2019-04-16T15:16:40.019Z,4.33
2019-04-16T15:19:25.758Z,4.40
2019-04-16T15:22:00.122Z,4.17
2019-04-16T15:24:38.156Z,4.27
2019-04-16T15:27:18.562Z,3.83
2019-04-16T15:29:56.504Z,4.40
2019-04-16T15:32:59.751Z,4.20
2019-04-16T15:35:37.783Z,4.80
2019-04-16T15:38:29.608Z,4.23
2019-04-16T15:41:35.068Z,4.08
2019-04-16T15:44:10.263Z,4.23
2019-04-16T15:47:00.679Z,4.63
2019-04-16T15:49:37.510Z,4.93
2019-04-16T15:52:27.290Z,4.37
2019-04-16T15:55:16.333Z,4.73
2019-04-16T15:58:13.111Z,3.67
2019-04-16T16:00:52.697Z,4.53
2019-04-16T16:03:52.027Z,4.30
2019-04-16T16:06:24.743Z,5.30
2019-04-16T16:09:20.887Z,4.30
2019-04-16T16:11:57.025Z,4.50
2019-04-16T16:14:33.214Z,4.30
2019-04-16T16:17:01.706Z,5.53
2019-04-16T16:19:32.855Z,5.23
2019-04-16T16:22:03.959Z,5.37
2019-04-16T16:24:36.064Z,5.00
2019-04-16T16:27:07.724Z,4.93
2019-04-16T16:29:38.869Z,4.73
2019-04-16T16:32:10.060Z,4.33
2019-04-16T16:34:41.217Z,5.47
2019-04-16T16:37:12.574Z,4.23
2019-04-16T16:39:43.714Z,4.37
2019-04-16T16:42:15.830Z,4.73
2019-04-16T16:44:49.505Z,4.60
2019-04-16T16:47:48.853Z,4.27
2019-04-16T16:50:20.051Z,4.12
2019-04-16T16:53:05.609Z,4.40
2019-04-16T16:55:39.606Z,4.27
2019-04-16T16:58:41.800Z,5.13
2019-04-16T17:01:23.344Z,4.20
2019-04-16T17:04:19.418Z,4.03
2019-04-16T17:06:50.741Z,4.27
2019-04-16T17:09:27.155Z,4.67
2019-04-16T17:12:04.305Z,4.83
2019-04-16T17:14:37.742Z,5.40
2019-04-16T17:17:14.329Z,4.40
2019-04-16T17:19:41.630Z,3.93
2019-04-16T17:22:14.633Z,5.53
2019-04-16T17:24:45.674Z,4.00
2019-04-16T17:27:16.880Z,4.57
2019-04-16T17:29:49.982Z,5.07
2019-04-16T17:32:22.125Z,5.33
2019-04-16T17:34:53.656Z,4.43
2019-04-16T17:37:27.935Z,4.43
2019-04-16T17:40:05.294Z,4.50
2019-04-16T17:42:39.237Z,3.93
2019-04-16T17:45:28.324Z,4.47
2019-04-16T17:48:14.178Z,4.30
2019-04-16T17:51:04.255Z,3.90
2019-04-16T17:53:45.635Z,4.30
2019-04-16T17:56:35.609Z,3.90
2019-04-16T17:59:09.830Z,4.42
2019-04-16T18:01:58.778Z,3.58
2019-04-16T18:04:38.505Z,3.83
2019-04-16T18:07:34.255Z,4.47
2019-04-16T18:10:26.581Z,4.40
2019-04-16T18:13:15.451Z,4.60
2019-04-16T18:16:16.672Z,3.57
2019-04-16T18:19:28.754Z,4.72
2019-04-16T18:31:14.109Z,3.70
2019-04-16T18:34:14.562Z,3.13
2019-04-16T18:37:37.113Z,3.70
2019-04-16T18:40:31.156Z,3.10
2019-04-16T18:43:27.321Z,3.75
2019-04-16T18:46:27.064Z,2.70
2019-04-16T18:49:05.919Z,4.03
2019-04-16T18:51:47.659Z,3.00
2019-04-16T18:54:32.943Z,3.22
2019-04-16T18:57:05.596Z,3.33
2019-04-16T18:59:36.876Z,3.23
2019-04-16T19:02:09.786Z,3.13
2019-04-16T19:04:41.162Z,3.30
2019-04-16T19:07:12.543Z,3.33
2019-04-16T19:09:43.813Z,3.83
2019-04-16T19:12:16.160Z,2.65
2019-04-16T19:14:52.355Z,3.80
2019-04-16T19:17:23.652Z,3.20
2019-04-16T19:19:54.938Z,3.13
2019-04-16T19:22:26.125Z,3.00
2019-04-16T19:24:57.447Z,3.03
2019-04-16T19:27:34.346Z,2.83
2019-04-16T19:30:06.631Z,2.87
2019-04-16T19:32:37.905Z,2.87
2019-04-16T19:35:11.402Z,2.27
2019-04-16T19:37:42.382Z,2.90
2019-04-16T19:40:16.095Z,3.27
2019-04-16T19:42:50.496Z,2.77
2019-04-16T19:45:22.304Z,2.67
2019-04-16T19:47:53.668Z,3.08
2019-04-16T19:50:25.118Z,3.03
2019-04-16T19:52:56.362Z,3.37
2019-04-16T19:55:27.687Z,2.73
2019-04-16T19:57:58.962Z,2.07
2019-04-16T20:00:30.544Z,2.63
2019-04-16T20:03:01.976Z,2.63
2019-04-16T20:05:33.324Z,2.37
2019-04-16T20:08:04.637Z,2.50
2019-04-16T20:10:35.944Z,2.83
2019-04-16T20:13:07.306Z,2.62
2019-04-16T20:15:43.309Z,2.50
2019-04-16T20:18:11.816Z,2.02
2019-04-16T20:20:42.976Z,2.30
2019-04-16T20:23:14.269Z,2.05
2019-04-16T20:25:45.603Z,2.98
2019-04-16T20:28:16.903Z,3.00
2019-04-16T20:30:48.100Z,3.60
2019-04-16T20:33:20.316Z,3.30
2019-04-16T20:35:53.274Z,3.47
2019-04-16T20:38:29.050Z,3.13
2019-04-16T20:40:57.579Z,3.10
2019-04-16T20:43:28.862Z,2.73
2019-04-16T20:46:00.506Z,2.67
2019-04-16T20:48:31.872Z,2.33
2019-04-16T20:51:03.253Z,2.93
2019-04-16T20:53:34.496Z,3.37
2019-04-16T20:56:10.036Z,2.27
2019-04-16T20:58:39.284Z,2.77
2019-04-16T21:01:10.610Z,3.10
2019-04-16T21:03:41.903Z,3.10
2019-04-16T21:06:13.336Z,3.80
2019-04-16T21:08:48.246Z,2.23
2019-04-16T21:11:19.457Z,2.80
2019-04-16T21:13:50.792Z,2.13
2019-04-16T21:16:21.949Z,2.90
2019-04-16T21:18:53.140Z,2.67
2019-04-16T21:21:24.456Z,3.07
2019-04-16T21:24:06.880Z,2.20
2019-04-16T21:26:33.760Z,3.23
2019-04-16T21:29:14.244Z,3.10
2019-04-16T21:31:47.548Z,2.90
2019-04-16T21:34:30.244Z,3.20
2019-04-16T21:37:15.966Z,2.87
2019-04-16T21:39:55.646Z,2.50
2019-04-16T21:42:26.875Z,2.60
2019-04-16T21:44:58.116Z,2.50
2019-04-16T21:47:29.446Z,2.73
2019-04-16T21:50:01.833Z,2.73
2019-04-16T21:52:33.115Z,4.00
2019-04-16T21:55:06.357Z,3.73
2019-04-16T21:57:37.672Z,3.80
2019-04-16T22:00:17.485Z,3.37
2019-04-16T22:02:50.846Z,3.80
2019-04-16T22:05:23.120Z,3.37
2019-04-16T22:07:57.067Z,2.83
2019-04-16T22:10:27.318Z,2.53
2019-04-16T22:12:58.526Z,2.57
2019-04-16T22:15:29.904Z,2.50
2019-04-16T22:18:07.585Z,2.40
2019-04-16T22:20:35.706Z,2.70
2019-04-16T22:23:07.841Z,2.33
2019-04-16T22:25:39.383Z,3.02
2019-04-16T22:28:12.748Z,2.70
2019-04-16T22:30:45.349Z,3.10
2019-04-16T22:33:16.813Z,2.93
2019-04-16T22:35:48.090Z,2.97
2019-04-16T22:38:23.942Z,2.60
2019-04-16T22:41:17.168Z,3.07
2019-04-16T22:44:02.001Z,2.10
2019-04-16T22:46:42.267Z,3.20
2019-04-16T22:49:13.435Z,2.93
2019-04-16T22:51:44.633Z,2.50
2019-04-16T22:54:17.639Z,2.60
2019-04-16T22:56:52.935Z,2.33
2019-04-16T22:59:24.113Z,2.97
2019-04-16T23:01:55.313Z,2.43
2019-04-16T23:04:27.174Z,3.23
2019-04-16T23:06:58.645Z,3.07
2019-04-16T23:09:31.248Z,2.90
2019-04-16T23:12:02.745Z,3.07
2019-04-16T23:14:34.951Z,3.40
2019-04-16T23:17:06.941Z,3.42
2019-04-16T23:19:39.161Z,3.10
2019-04-16T23:22:14.261Z,5.90
2019-04-16T23:24:43.548Z,7.00
2019-04-16T23:27:15.138Z,5.30
2019-04-16T23:29:47.536Z,4.67
2019-04-16T23:32:19.715Z,3.77
2019-04-16T23:34:50.992Z,2.80
2019-04-16T23:37:23.248Z,3.27
2019-04-16T23:39:55.167Z,3.63
2019-04-16T23:42:26.496Z,3.27
2019-04-16T23:45:12.999Z,3.13
2019-04-16T23:48:15.815Z,2.98
2019-04-16T23:51:07.546Z,2.70
2019-04-16T23:53:49.591Z,2.53
2019-04-16T23:56:25.872Z,2.57
2019-04-16T23:59:02.941Z,2.77
